Terminal Aerodrome Forecast
Issued by NWS Twin Cities, MN

Home | Current Version | Previous Version | Text Only | Print | Product List | Glossary Off
Versions: 1 2 3 4 5 6 7 8 9 10 11 12 13 14 15 16 17 18 19 20

000
FTUS43 KMPX 260832 AAA
TAFEAU
TAF AMD
KEAU 260832Z 2609/2706 18008KT P6SM BKN019 OVC120
      TEMPO 2609/2611 OVC120
     FM261100 17008KT 1 1/2SM -SN OVC009
      TEMPO 2611/2614 3/4SM -SN VV007
     FM261400 17006KT 6SM -FZDZSN BR OVC012
     FM261600 18008KT P6SM OVC015
     FM262100 24006KT P6SM OVC025=

USA.gov is the U.S. government's official web portal to all federal, state and local government web resources and services.